Wetterdaten: Woche 07.05.12 - 13.05.12 (KW19)
Datum Zeit Temp. A. Feuchte A. Luftdruck Regen Wind Richtung Taupunkt Windchill Windben
07.05.2012 00:00 13,0 C 78 % 1012,0 hPa 0,0 l/m 6,1 km/h N 9,3 C 12,8 C 19,3 km/h
07.05.2012 01:00 12,8 C 78 % 1012,3 hPa 0,3 l/m 5,7 km/h N 9,0 C 12,4 C 17,7 km/h
07.05.2012 02:00 12,7 C 77 % 1012,3 hPa 0,0 l/m 8,2 km/h N 8,7 C 11,6 C 22,9 km/h
07.05.2012 03:00 12,7 C 76 % 1012,7 hPa 0,3 l/m 4,9 km/h N 8,5 C 12,5 C 14,1 km/h
07.05.2012 04:00 12,7 C 73 % 1012,6 hPa 0,0 l/m 6,8 km/h N 8,0 C 12,2 C 16,5 km/h
07.05.2012 05:00 12,8 C 70 % 1013,0 hPa 0,0 l/m 5,9 km/h N 7,4 C 12,6 C 17,3 km/h
07.05.2012 06:00 12,5 C 72 % 1013,5 hPa 0,0 l/m 5,2 km/h N 7,5 C 12,5 C 16,5 km/h
07.05.2012 07:00 12,9 C 72 % 1014,0 hPa 0,0 l/m 7,2 km/h N 7,9 C 12,2 C 17,7 km/h
07.05.2012 08:00 13,2 C 72 % 1014,6 hPa 0,0 l/m 8,8 km/h N 8,2 C 11,9 C 20,1 km/h
07.05.2012 09:00 13,9 C 71 % 1015,0 hPa 0,0 l/m 8,9 km/h N 8,8 C 12,5 C 20,9 km/h
07.05.2012 10:00 14,9 C 68 % 1015,1 hPa 0,0 l/m 9,6 km/h N 9,1 C 13,3 C 22,9 km/h
07.05.2012 11:00 15,9 C 66 % 1015,3 hPa 0,0 l/m 9,3 km/h N 9,5 C 14,4 C 22,5 km/h
07.05.2012 12:00 16,3 C 65 % 1015,4 hPa 0,0 l/m 8,6 km/h N 9,6 C 15,1 C 22,1 km/h
07.05.2012 13:00 16,7 C 64 % 1015,5 hPa 0,0 l/m 8,1 km/h N 9,7 C 15,8 C 19,7 km/h
07.05.2012 14:00 17,2 C 63 % 1015,3 hPa 0,0 l/m 8,8 km/h N 10,1 C 16,1 C 21,3 km/h
07.05.2012 15:00 17,3 C 61 % 1015,1 hPa 0,0 l/m 8,1 km/h N 9,7 C 16,5 C 20,1 km/h
07.05.2012 16:00 17,3 C 61 % 1015,1 hPa 0,0 l/m 6,8 km/h N 9,7 C 17,1 C 17,7 km/h
07.05.2012 17:00 16,3 C 68 % 1015,4 hPa 0,0 l/m 3,5 km/h N 10,3 C 16,2 C 11,3 km/h
07.05.2012 18:00 16,8 C 68 % 1015,4 hPa 0,0 l/m 2,5 km/h N 10,9 C 16,8 C 7,6 km/h
07.05.2012 19:00 16,7 C 66 % 1015,7 hPa 0,0 l/m 3,8 km/h N 10,2 C 16,7 C 12,9 km/h
07.05.2012 20:00 15,1 C 68 % 1016,4 hPa 0,0 l/m 0,4 km/h N 9,2 C 15,1 C 3,6 km/h
07.05.2012 21:00 13,1 C 75 % 1017,0 hPa 0,0 l/m 0,1 km/h N 8,6 C 13,1 C 2,0 km/h
07.05.2012 22:00 12,2 C 80 % 1017,6 hPa 0,0 l/m 0,2 km/h N 8,8 C 12,2 C 2,8 km/h
07.05.2012 23:00 12,2 C 78 % 1018,3 hPa 0,0 l/m 0,9 km/h N 8,5 C 12,2 C 6,4 km/h
08.05.2012 00:00 11,4 C 76 % 1018,8 hPa 0,0 l/m 0,6 km/h N 7,3 C 11,4 C 5,6 km/h
08.05.2012 01:00 10,3 C 77 % 1019,1 hPa 0,0 l/m 0,4 km/h N 6,5 C 10,3 C 4,4 km/h
08.05.2012 02:00 8,9 C 79 % 1019,2 hPa 0,0 l/m 0,0 km/h N 5,5 C 8,9 C 0,4 km/h
08.05.2012 03:00 7,5 C 82 % 1019,2 hPa 0,0 l/m 0,0 km/h N 4,6 C 7,5 C 0,0 km/h
08.05.2012 04:00 6,7 C 82 % 1019,3 hPa 0,0 l/m 0,0 km/h N 3,8 C 6,7 C 0,0 km/h
08.05.2012 05:00 6,2 C 82 % 1019,4 hPa 0,0 l/m 0,0 km/h N 3,3 C 6,2 C 0,0 km/h
08.05.2012 06:00 6,1 C 81 % 1019,6 hPa 0,0 l/m 0,0 km/h N 3,1 C 6,1 C 0,0 km/h
08.05.2012 07:00 8,1 C 79 % 1019,7 hPa 0,0 l/m 0,7 km/h N 4,6 C 8,1 C 3,6 km/h
08.05.2012 08:00 11,3 C 76 % 1019,4 hPa 0,0 l/m 4,2 km/h N 7,1 C 11,3 C 11,3 km/h
08.05.2012 09:00 13,6 C 65 % 1019,3 hPa 0,0 l/m 3,9 km/h N 7,1 C 13,6 C 12,9 km/h
08.05.2012 10:00 15,6 C 62 % 1019,0 hPa 0,0 l/m 2,5 km/h N 8,4 C 15,6 C 10,1 km/h
08.05.2012 11:00 17,1 C 58 % 1018,6 hPa 0,0 l/m 3,2 km/h N 8,9 C 17,1 C 10,9 km/h
08.05.2012 12:00 18,9 C 55 % 1018,1 hPa 0,0 l/m 2,3 km/h N 9,6 C 18,9 C 8,4 km/h
08.05.2012 13:00 20,0 C 51 % 1017,5 hPa 0,0 l/m 2,9 km/h N 9,5 C 20,0 C 11,7 km/h
08.05.2012 14:00 21,4 C 46 % 1017,0 hPa 0,0 l/m 2,3 km/h N 9,1 C 21,4 C 10,5 km/h
08.05.2012 15:00 21,1 C 46 % 1016,7 hPa 0,0 l/m 2,6 km/h N 8,9 C 21,1 C 9,3 km/h
08.05.2012 16:00 20,3 C 44 % 1016,4 hPa 0,0 l/m 1,8 km/h N 7,5 C 20,3 C 7,6 km/h
08.05.2012 17:00 20,5 C 45 % 1016,2 hPa 0,0 l/m 1,1 km/h N 8,2 C 20,5 C 9,3 km/h
08.05.2012 18:00 21,2 C 43 % 1016,0 hPa 0,0 l/m 1,3 km/h N 7,9 C 21,2 C 7,6 km/h
08.05.2012 19:00 20,7 C 42 % 1016,1 hPa 0,0 l/m 0,5 km/h N 7,4 C 20,7 C 5,2 km/h
08.05.2012 20:00 18,2 C 51 % 1016,4 hPa 0,0 l/m 0,0 km/h N 7,7 C 18,2 C 0,0 km/h
08.05.2012 21:00 14,5 C 64 % 1016,9 hPa 0,0 l/m 0,0 km/h N 7,6 C 14,5 C 0,0 km/h
08.05.2012 22:00 12,3 C 71 % 1017,1 hPa 0,0 l/m 0,0 km/h N 7,3 C 12,3 C 0,0 km/h
08.05.2012 23:00 10,9 C 75 % 1016,8 hPa 0,0 l/m 0,0 km/h N 6,7 C 10,9 C 0,0 km/h
09.05.2012 00:00 9,7 C 79 % 1016,9 hPa 0,0 l/m 0,0 km/h N 6,1 C 9,7 C 0,4 km/h
09.05.2012 01:00 8,9 C 81 % 1016,9 hPa 0,0 l/m 0,0 km/h N 5,8 C 8,9 C 0,8 km/h
09.05.2012 02:00 8,2 C 82 % 1016,8 hPa 0,0 l/m 0,0 km/h N 5,3 C 8,2 C 0,0 km/h
09.05.2012 03:00 7,8 C 82 % 1016,8 hPa 0,0 l/m 0,0 km/h N 4,9 C 7,8 C 0,0 km/h
09.05.2012 04:00 7,4 C 82 % 1016,7 hPa 0,0 l/m 0,0 km/h N 4,5 C 7,4 C 0,0 km/h
09.05.2012 05:00 7,0 C 81 % 1016,9 hPa 0,0 l/m 0,0 km/h N 4,0 C 7,0 C 0,0 km/h
09.05.2012 06:00 7,6 C 80 % 1017,2 hPa 0,0 l/m 0,0 km/h N 4,2 C 7,6 C 0,0 km/h
09.05.2012 07:00 10,0 C 79 % 1017,5 hPa 0,0 l/m 0,1 km/h N 6,4 C 10,0 C 2,4 km/h
09.05.2012 08:00 12,8 C 79 % 1017,8 hPa 0,0 l/m 0,4 km/h N 9,3 C 12,8 C 5,6 km/h
09.05.2012 09:00 15,4 C 71 % 1017,9 hPa 0,0 l/m 0,5 km/h N 10,1 C 15,4 C 5,2 km/h
09.05.2012 10:00 18,4 C 63 % 1018,0 hPa 0,0 l/m 1,4 km/h N 11,1 C 18,4 C 7,6 km/h
09.05.2012 11:00 19,8 C 62 % 1017,9 hPa 0,0 l/m 2,6 km/h N 12,4 C 19,8 C 9,7 km/h
09.05.2012 12:00 22,4 C 58 % 1017,5 hPa 0,0 l/m 1,5 km/h N 13,6 C 22,4 C 9,6 km/h
09.05.2012 13:00 24,1 C 53 % 1017,0 hPa 0,0 l/m 2,4 km/h N 13,9 C 24,1 C 10,1 km/h
09.05.2012 14:00 26,0 C 40 % 1016,8 hPa 0,0 l/m 3,3 km/h N 11,4 C 26,0 C 12,9 km/h
09.05.2012 15:00 26,3 C 40 % 1016,6 hPa 0,0 l/m 2,5 km/h N 11,6 C 26,3 C 13,7 km/h
09.05.2012 16:00 25,4 C 40 % 1016,5 hPa 0,0 l/m 4,7 km/h N 10,7 C 25,4 C 20,1 km/h
09.05.2012 17:00 25,3 C 40 % 1016,8 hPa 0,0 l/m 4,3 km/h N 10,6 C 25,3 C 18,1 km/h
09.05.2012 18:00 25,1 C 42 % 1016,8 hPa 0,0 l/m 4,9 km/h N 11,1 C 25,1 C 18,5 km/h
09.05.2012 19:00 23,7 C 46 % 1017,3 hPa 0,0 l/m 3,9 km/h N 11,2 C 23,7 C 13,3 km/h
09.05.2012 20:00 21,9 C 50 % 1017,9 hPa 0,0 l/m 0,8 km/h N 10,9 C 21,9 C 5,2 km/h
09.05.2012 21:00 19,4 C 59 % 1018,5 hPa 0,0 l/m 0,0 km/h N 11,0 C 19,4 C 2,4 km/h
09.05.2012 22:00 16,9 C 69 % 1019,1 hPa 0,0 l/m 0,0 km/h N 11,1 C 16,9 C 0,4 km/h
09.05.2012 23:00 16,2 C 74 % 1019,6 hPa 0,0 l/m 0,0 km/h N 11,5 C 16,2 C 0,4 km/h
10.05.2012 00:00 15,8 C 75 % 1020,1 hPa 0,0 l/m 0,0 km/h N 11,5 C 15,8 C 1,2 km/h
10.05.2012 01:00 15,1 C 75 % 1020,3 hPa 0,0 l/m 0,0 km/h N 10,7 C 15,1 C 1,6 km/h
10.05.2012 02:00 13,9 C 78 % 1020,6 hPa 0,0 l/m 0,0 km/h N 10,2 C 13,9 C 0,8 km/h
10.05.2012 03:00 13,7 C 81 % 1021,1 hPa 0,0 l/m 0,1 km/h N 10,5 C 13,7 C 2,0 km/h
10.05.2012 04:00 14,2 C 81 % 1021,5 hPa 0,0 l/m 0,0 km/h N 11,0 C 14,2 C 1,2 km/h
10.05.2012 05:00 15,7 C 81 % 1021,6 hPa 0,0 l/m 0,1 km/h N 12,4 C 15,7 C 2,4 km/h
10.05.2012 06:00 16,4 C 81 % 1021,9 hPa 0,0 l/m 0,1 km/h N 13,0 C 16,4 C 2,4 km/h
10.05.2012 07:00 16,5 C 81 % 1022,6 hPa 0,0 l/m 0,0 km/h N 13,2 C 16,5 C 0,4 km/h
10.05.2012 08:00 17,8 C 78 % 1023,1 hPa 0,0 l/m 0,2 km/h N 13,9 C 17,8 C 3,6 km/h
10.05.2012 09:00 20,5 C 71 % 1023,5 hPa 0,0 l/m 1,0 km/h N 15,2 C 20,5 C 5,6 km/h
10.05.2012 10:00 23,6 C 55 % 1023,4 hPa 0,0 l/m 4,6 km/h N 13,9 C 23,6 C 16,1 km/h
10.05.2012 11:00 24,6 C 50 % 1023,6 hPa 0,0 l/m 5,3 km/h N 13,4 C 24,6 C 14,1 km/h
10.05.2012 12:00 25,8 C 46 % 1023,3 hPa 0,0 l/m 4,6 km/h N 13,2 C 25,8 C 13,3 km/h
10.05.2012 13:00 26,3 C 43 % 1023,1 hPa 0,0 l/m 5,8 km/h N 12,5 C 26,3 C 18,5 km/h
10.05.2012 14:00 26,6 C 44 % 1022,7 hPa 0,0 l/m 3,6 km/h N 13,3 C 26,6 C 14,5 km/h
10.05.2012 15:00 26,9 C 41 % 1022,3 hPa 0,0 l/m 3,7 km/h N 12,6 C 26,9 C 15,3 km/h
10.05.2012 16:00 26,3 C 42 % 1021,9 hPa 0,0 l/m 4,7 km/h N 12,2 C 26,3 C 14,9 km/h
10.05.2012 17:00 26,2 C 42 % 1021,7 hPa 0,0 l/m 3,4 km/h N 12,1 C 26,2 C 14,9 km/h
10.05.2012 18:00 26,2 C 42 % 1021,6 hPa 0,0 l/m 3,1 km/h N 12,1 C 26,2 C 12,9 km/h
10.05.2012 19:00 25,0 C 43 % 1021,9 hPa 0,0 l/m 1,8 km/h N 11,6 C 25,0 C 8,9 km/h
10.05.2012 20:00 23,3 C 48 % 1022,4 hPa 0,0 l/m 0,5 km/h N 11,5 C 23,3 C 3,2 km/h
10.05.2012 21:00 19,8 C 59 % 1023,0 hPa 0,0 l/m 0,0 km/h N 11,5 C 19,8 C 0,0 km/h
10.05.2012 22:00 17,7 C 65 % 1023,2 hPa 0,0 l/m 0,0 km/h N 10,9 C 17,7 C 2,0 km/h
10.05.2012 23:00 18,0 C 62 % 1023,1 hPa 0,0 l/m 0,2 km/h N 10,6 C 18,0 C 3,2 km/h
11.05.2012 00:00 16,8 C 67 % 1023,1 hPa 0,0 l/m 0,0 km/h N 10,5 C 16,8 C 1,6 km/h
11.05.2012 01:00 14,4 C 75 % 1023,1 hPa 0,0 l/m 0,0 km/h N 10,0 C 14,4 C 0,4 km/h
11.05.2012 02:00 13,1 C 80 % 1023,0 hPa 0,0 l/m 0,0 km/h N 9,7 C 13,1 C 0,8 km/h
11.05.2012 03:00 12,5 C 81 % 1023,2 hPa 0,0 l/m 0,0 km/h N 9,4 C 12,5 C 0,0 km/h
11.05.2012 04:00 11,8 C 82 % 1023,3 hPa 0,0 l/m 0,0 km/h N 8,7 C 11,8 C 0,0 km/h
11.05.2012 05:00 11,5 C 81 % 1023,5 hPa 0,0 l/m 0,0 km/h N 8,4 C 11,5 C 0,0 km/h
11.05.2012 06:00 11,7 C 80 % 1023,7 hPa 0,0 l/m 0,0 km/h N 8,2 C 11,7 C 0,0 km/h
11.05.2012 07:00 14,5 C 79 % 1023,7 hPa 0,0 l/m 0,2 km/h N 10,8 C 14,5 C 1,2 km/h
11.05.2012 08:00 19,5 C 69 % 1023,8 hPa 0,0 l/m 0,5 km/h N 13,5 C 19,5 C 3,6 km/h
11.05.2012 09:00 22,9 C 58 % 1023,9 hPa 0,0 l/m 0,7 km/h N 14,2 C 22,9 C 5,6 km/h
11.05.2012 10:00 24,5 C 55 % 1024,0 hPa 0,0 l/m 1,3 km/h N 14,8 C 24,5 C 6,8 km/h
11.05.2012 11:00 25,7 C 51 % 1023,9 hPa 0,0 l/m 1,8 km/h N 14,6 C 25,7 C 6,0 km/h
11.05.2012 12:00 27,0 C 48 % 1023,5 hPa 0,0 l/m 1,6 km/h N 14,9 C 27,0 C 8,0 km/h
11.05.2012 13:00 29,0 C 43 % 1023,0 hPa 0,0 l/m 1,6 km/h N 15,0 C 29,0 C 8,8 km/h
11.05.2012 14:00 29,7 C 39 % 1022,5 hPa 0,0 l/m 1,6 km/h N 14,1 C 29,7 C 9,3 km/h
11.05.2012 15:00 29,0 C 40 % 1022,0 hPa 0,0 l/m 1,7 km/h N 13,9 C 29,0 C 10,9 km/h
11.05.2012 16:00 28,7 C 40 % 1021,6 hPa 0,0 l/m 4,1 km/h N 13,8 C 28,7 C 17,7 km/h
11.05.2012 17:00 27,9 C 42 % 1021,3 hPa 0,0 l/m 3,8 km/h N 13,7 C 27,9 C 18,9 km/h
11.05.2012 18:00 27,4 C 42 % 1021,0 hPa 0,0 l/m 4,7 km/h N 13,3 C 27,4 C 15,7 km/h
11.05.2012 19:00 26,5 C 45 % 1020,5 hPa 0,0 l/m 2,3 km/h N 13,4 C 26,5 C 10,9 km/h
11.05.2012 20:00 24,6 C 50 % 1020,1 hPa 0,0 l/m 0,4 km/h N 13,3 C 24,6 C 4,8 km/h
11.05.2012 21:00 22,4 C 57 % 1019,9 hPa 0,0 l/m 0,1 km/h N 13,5 C 22,4 C 2,4 km/h
11.05.2012 22:00 20,6 C 63 % 1019,7 hPa 0,0 l/m 0,1 km/h N 13,4 C 20,6 C 2,4 km/h
11.05.2012 23:00 18,9 C 70 % 1019,2 hPa 0,0 l/m 0,0 km/h N 13,2 C 18,9 C 0,8 km/h
12.05.2012 00:00 17,3 C 75 % 1018,8 hPa 0,0 l/m 0,0 km/h N 12,7 C 17,3 C 0,4 km/h
12.05.2012 01:00 16,2 C 78 % 1018,5 hPa 0,0 l/m 0,0 km/h N 12,4 C 16,2 C 0,0 km/h
12.05.2012 02:00 15,1 C 81 % 1018,2 hPa 0,0 l/m 0,0 km/h N 11,9 C 15,1 C 0,8 km/h
12.05.2012 03:00 14,8 C 81 % 1017,7 hPa 0,0 l/m 0,0 km/h N 11,5 C 14,8 C 0,0 km/h
12.05.2012 04:00 14,3 C 81 % 1017,4 hPa 0,0 l/m 0,0 km/h N 11,0 C 14,3 C 0,4 km/h
12.05.2012 05:00 14,2 C 80 % 1017,5 hPa 0,0 l/m 0,9 km/h N 10,7 C 14,2 C 4,0 km/h
12.05.2012 06:00 16,0 C 81 % 1017,5 hPa 0,0 l/m 3,3 km/h N 12,6 C 16,0 C 11,3 km/h
12.05.2012 07:00 19,0 C 73 % 1017,9 hPa 0,0 l/m 4,5 km/h N 14,0 C 19,0 C 15,3 km/h
12.05.2012 08:00 21,2 C 65 % 1018,3 hPa 0,0 l/m 9,0 km/h N 14,4 C 20,3 C 19,7 km/h
12.05.2012 09:00 22,7 C 63 % 1019,2 hPa 0,0 l/m 12,1 km/h N 15,2 C 21,2 C 27,8 km/h
12.05.2012 10:00 23,2 C 63 % 1019,9 hPa 0,0 l/m 13,8 km/h N 15,6 C 21,3 C 30,6 km/h
12.05.2012 11:00 21,5 C 67 % 1020,5 hPa 0,0 l/m 11,0 km/h N 15,1 C 20,1 C 26,1 km/h
12.05.2012 12:00 20,2 C 74 % 1020,5 hPa 0,0 l/m 6,8 km/h N 15,4 C 20,0 C 22,1 km/h
12.05.2012 13:00 17,8 C 79 % 1021,3 hPa 0,3 l/m 11,1 km/h N 14,1 C 15,9 C 30,2 km/h
12.05.2012 14:00 15,4 C 81 % 1022,1 hPa 0,0 l/m 11,2 km/h N 12,1 C 13,1 C 24,5 km/h
12.05.2012 15:00 15,3 C 80 % 1022,8 hPa 0,0 l/m 11,1 km/h N 11,8 C 12,9 C 25,7 km/h
12.05.2012 16:00 14,4 C 80 % 1024,3 hPa 0,0 l/m 13,6 km/h N 11,0 C 10,9 C 31,0 km/h
12.05.2012 17:00 12,8 C 81 % 1025,3 hPa 0,0 l/m 11,9 km/h N 9,5 C 9,7 C 25,7 km/h
12.05.2012 18:00 12,2 C 78 % 1025,8 hPa 0,0 l/m 10,8 km/h N 8,5 C 9,6 C 25,7 km/h
12.05.2012 19:00 11,6 C 78 % 1026,0 hPa 0,0 l/m 11,1 km/h N 7,9 C 8,8 C 27,4 km/h
12.05.2012 20:00 11,1 C 79 % 1026,7 hPa 0,3 l/m 9,7 km/h N 7,6 C 9,0 C 26,1 km/h
12.05.2012 21:00 10,7 C 79 % 1027,7 hPa 0,0 l/m 10,8 km/h N 7,1 C 8,0 C 29,0 km/h
12.05.2012 22:00 10,8 C 76 % 1028,1 hPa 0,0 l/m 10,0 km/h N 6,8 C 8,6 C 24,1 km/h
12.05.2012 23:00 10,7 C 75 % 1027,9 hPa 0,0 l/m 8,9 km/h N 6,4 C 9,1 C 22,9 km/h
13.05.2012 00:00 10,5 C 74 % 1028,0 hPa 0,0 l/m 9,2 km/h N 6,1 C 8,7 C 21,7 km/h
13.05.2012 01:00 10,3 C 71 % 1028,2 hPa 0,0 l/m 8,8 km/h N 5,2 C 8,7 C 21,3 km/h
13.05.2012 02:00 9,9 C 66 % 1027,5 hPa 0,0 l/m 10,6 km/h N 3,8 C 7,1 C 26,6 km/h
13.05.2012 03:00 9,2 C 65 % 1027,4 hPa 0,0 l/m 8,6 km/h N 3,0 C 7,6 C 21,3 km/h
13.05.2012 04:00 8,5 C 64 % 1027,7 hPa 0,0 l/m 6,9 km/h N 2,1 C 8,1 C 17,7 km/h
13.05.2012 05:00 7,8 C 66 % 1028,1 hPa 0,0 l/m 5,1 km/h N 1,8 C 7,8 C 16,1 km/h
13.05.2012 06:00 7,6 C 67 % 1028,3 hPa 0,0 l/m 7,4 km/h N 1,9 C 6,8 C 18,1 km/h
13.05.2012 07:00 8,1 C 65 % 1028,2 hPa 0,0 l/m 10,8 km/h N 2,0 C 5,2 C 24,1 km/h
13.05.2012 08:00 9,4 C 62 % 1028,1 hPa 0,0 l/m 11,9 km/h N 2,5 C 5,9 C 28,2 km/h
13.05.2012 09:00 10,8 C 58 % 1027,7 hPa 0,0 l/m 11,2 km/h N 2,9 C 7,9 C 26,1 km/h
13.05.2012 10:00 11,6 C 51 % 1027,2 hPa 0,0 l/m 12,4 km/h N 1,7 C 8,1 C 27,8 km/h
13.05.2012 11:00 12,5 C 52 % 1026,4 hPa 0,0 l/m 13,8 km/h N 2,9 C 8,7 C 31,0 km/h
13.05.2012 12:00 13,1 C 48 % 1026,0 hPa 0,0 l/m 11,8 km/h N 2,2 C 10,2 C 26,5 km/h
13.05.2012 13:00 13,5 C 44 % 1025,5 hPa 0,0 l/m 11,3 km/h N 1,3 C 10,8 C 26,1 km/h
13.05.2012 14:00 13,8 C 42 % 1024,8 hPa 0,0 l/m 12,9 km/h N 1,0 C 10,5 C 27,4 km/h
13.05.2012 15:00 13,6 C 39 % 1024,4 hPa 0,0 l/m 11,7 km/h N -0,1 C 10,8 C 25,7 km/h
13.05.2012 16:00 13,6 C 40 % 1023,9 hPa 0,0 l/m 11,6 km/h N 0,3 C 10,8 C 26,1 km/h
13.05.2012 17:00 13,3 C 41 % 1023,7 hPa 0,0 l/m 11,4 km/h N 0,3 C 10,6 C 26,6 km/h
13.05.2012 18:00 12,4 C 44 % 1023,6 hPa 0,0 l/m 10,7 km/h N 0,3 C 9,9 C 26,6 km/h
13.05.2012 19:00 12,0 C 44 % 1023,6 hPa 0,0 l/m 9,1 km/h N 0,2 C 10,3 C 24,1 km/h
13.05.2012 20:00 11,4 C 47 % 1023,8 hPa 0,0 l/m 7,9 km/h N 0,3 C 10,4 C 21,3 km/h
13.05.2012 21:00 10,8 C 48 % 1024,1 hPa 0,0 l/m 8,5 km/h N 0,3 C 9,4 C 20,9 km/h
13.05.2012 22:00 10,0 C 52 % 1024,1 hPa 0,0 l/m 7,8 km/h N 0,6 C 9,1 C 20,9 km/h
13.05.2012 23:00 9,6 C 55 % 1024,1 hPa 0,0 l/m 8,2 km/h N 0,9 C 8,3 C 20,1 km/h
Min-Datum _ 08.05.12 09.05.12 07.05.12 - 07.05.12 - 13.05.12 13.05.12 07.05.12
_ Min-Zeit 05:45 14:45 00:00 - 20:30 - 15:30 07:30 21:45
Minimum _ 5,9 C 36 % 1011,8 hPa - 0,0 km/h - -1,0 C 4,2 C 0,0 km/h
Max-Datum _ 11.05.12 08.05.12 13.05.12 07.05.12 12.05.12 - 12.05.12 11.05.12 12.05.12
_ Max-Zeit 14:15 03:15 01:30 01:00 16:00 - 10:00 14:15 13:15
Maximum _ 30,2 C 82 % 1028,4 hPa 0,3 l/m 15,2 km/h
N
- 16,5 C 30,2 C 37,0 km/h
N
Durchschnitt _ 16,3 C 64 % 1020,3 hPa #1,0 l/m 4,1 km/h N 9,0 C 15,7 C 11,9 km/h